Time;durP1;ratioP1;P1;durP2;ratioP2;P2;SDS_P1;SDS_P2;PMS_P1;PMS_P2;Temp;Humidity;BMP_temperature;BMP_pressure;BME280_temperature;BME280_humidity;BME280_pressure;Samples;Min_cycle;Max_cycle;Signal;HPM_P1;HPM_P2
2020/12/10 00:01:10;;;;;;;29.48;21.00;;;2.50;99.90;;;;;;5028152;28;20150;-71
2020/12/10 00:03:36;;;;;;;31.30;20.13;;;2.40;99.90;;;;;;5030505;28;20048;-78
2020/12/10 00:06:03;;;;;;;31.77;20.00;;;2.40;99.90;;;;;;5029725;28;20126;-73
2020/12/10 00:08:30;;;;;;;33.97;20.45;;;2.40;99.90;;;;;;5025356;28;20056;-72
2020/12/10 00:10:57;;;;;;;31.02;18.02;;;2.40;99.90;;;;;;5027564;28;20084;-73
2020/12/10 00:13:24;;;;;;;33.25;19.30;;;2.40;99.90;;;;;;5025534;28;20401;-69
2020/12/10 00:15:50;;;;;;;28.17;16.40;;;2.40;99.90;;;;;;5024374;28;20038;-70
2020/12/10 00:18:17;;;;;;;27.10;17.38;;;2.40;99.90;;;;;;5029604;28;20064;-73
2020/12/10 00:20:43;;;;;;;26.67;17.05;;;2.40;99.90;;;;;;5028891;28;20493;-73
2020/12/10 00:23:10;;;;;;;26.80;17.52;;;2.40;99.90;;;;;;5025450;28;20656;-73
2020/12/10 00:25:36;;;;;;;25.88;16.38;;;2.40;99.90;;;;;;5027601;28;20049;-69
2020/12/10 00:28:03;;;;;;;27.48;16.60;;;2.40;99.90;;;;;;5022038;28;20967;-68
2020/12/10 00:30:29;;;;;;;24.90;16.90;;;2.40;99.90;;;;;;5030370;28;20557;-74
2020/12/10 00:32:56;;;;;;;22.70;15.75;;;2.40;99.90;;;;;;5023831;28;20049;-69
2020/12/10 00:35:22;;;;;;;25.42;17.88;;;2.30;99.90;;;;;;5025449;28;20041;-77
2020/12/10 00:37:49;;;;;;;24.70;16.98;;;2.40;99.90;;;;;;5020431;28;20051;-69
2020/12/10 00:40:15;;;;;;;26.90;16.98;;;2.30;99.90;;;;;;5026495;28;20583;-72
2020/12/10 00:42:42;;;;;;;27.30;15.75;;;2.30;99.90;;;;;;5026497;28;20055;-77
2020/12/10 00:45:08;;;;;;;21.25;17.02;;;2.40;99.90;;;;;;5030588;28;20140;-72
2020/12/10 00:47:35;;;;;;;21.13;14.82;;;2.40;99.90;;;;;;5025105;28;20051;-75
2020/12/10 00:50:02;;;;;;;23.35;14.95;;;2.40;99.90;;;;;;5025060;28;20041;-68
2020/12/10 00:52:30;;;;;;;24.27;15.85;;;2.40;99.90;;;;;;5026021;28;20392;-70
2020/12/10 00:55:05;;;;;;;19.17;14.30;;;2.40;99.90;;;;;;5024031;28;20463;-73
2020/12/10 00:57:34;;;;;;;25.02;16.70;;;2.30;99.90;;;;;;5023259;28;20053;-67
2020/12/10 01:00:03;;;;;;;26.38;15.05;;;2.30;99.90;;;;;;5027573;28;20084;-70
2020/12/10 01:02:30;;;;;;;23.98;15.40;;;2.30;99.90;;;;;;5025377;28;20045;-70
2020/12/10 01:04:56;;;;;;;24.13;15.23;;;2.30;99.90;;;;;;5025262;28;20045;-67
2020/12/10 01:07:23;;;;;;;27.48;16.15;;;2.30;99.90;;;;;;5019322;28;20057;-70
2020/12/10 01:09:49;;;;;;;23.65;15.27;;;2.30;99.90;;;;;;5022437;28;20706;-72
2020/12/10 01:12:16;;;;;;;24.42;14.90;;;2.30;99.90;;;;;;5022568;28;20041;-68
2020/12/10 01:14:42;;;;;;;26.65;15.15;;;2.30;99.90;;;;;;5023750;28;20190;-70
2020/12/10 01:17:09;;;;;;;23.17;16.90;;;2.30;99.90;;;;;;5026211;28;20051;-72
2020/12/10 01:19:35;;;;;;;22.77;16.35;;;2.30;99.90;;;;;;5026255;28;20349;-75
2020/12/10 01:22:02;;;;;;;20.73;14.45;;;2.30;99.90;;;;;;5024577;28;20429;-70
2020/12/10 01:24:28;;;;;;;22.00;15.82;;;2.30;99.90;;;;;;5026574;28;20118;-75
2020/12/10 01:26:55;;;;;;;22.48;14.40;;;2.30;99.90;;;;;;5024324;28;20674;-77
2020/12/10 01:29:22;;;;;;;21.20;16.08;;;2.30;99.90;;;;;;5024363;28;20084;-73
2020/12/10 01:31:49;;;;;;;24.92;15.77;;;2.30;99.90;;;;;;5023569;28;20049;-75
2020/12/10 01:34:17;;;;;;;23.63;17.17;;;2.30;99.90;;;;;;5024396;28;20148;-76
2020/12/10 01:36:43;;;;;;;26.83;16.58;;;2.30;99.90;;;;;;5028232;28;20729;-73
2020/12/10 01:39:10;;;;;;;27.77;17.00;;;2.30;99.90;;;;;;5023112;28;20052;-67
2020/12/10 01:41:36;;;;;;;28.90;18.75;;;2.30;99.90;;;;;;5025491;28;20098;-75
2020/12/10 01:44:04;;;;;;;26.05;19.77;;;2.30;99.90;;;;;;5022619;28;20047;-71
2020/12/10 01:46:33;;;;;;;29.80;19.80;;;2.30;99.90;;;;;;5023989;28;20451;-72
2020/12/10 01:49:01;;;;;;;24.75;19.27;;;2.20;99.90;;;;;;5026369;28;21441;-69
2020/12/10 01:51:29;;;;;;;22.92;16.02;;;2.20;99.90;;;;;;5025987;28;20064;-69
2020/12/10 01:53:58;;;;;;;25.60;18.30;;;2.20;99.90;;;;;;5019808;28;20060;-71
2020/12/10 01:56:24;;;;;;;22.55;16.25;;;2.20;99.90;;;;;;5024948;28;20195;-68
2020/12/10 01:58:51;;;;;;;22.42;16.13;;;2.10;99.90;;;;;;5025000;28;20056;-75
2020/12/10 02:01:17;;;;;;;23.75;15.48;;;2.10;99.90;;;;;;5022737;28;20041;-72
2020/12/10 02:03:44;;;;;;;26.88;18.80;;;2.10;99.90;;;;;;5021116;28;20171;-72
2020/12/10 02:06:10;;;;;;;23.27;17.15;;;2.10;99.90;;;;;;5022660;28;20049;-77
2020/12/10 02:08:41;;;;;;;21.52;16.83;;;2.10;99.90;;;;;;5022044;28;20073;-74
2020/12/10 02:11:11;;;;;;;30.27;17.50;;;2.10;99.90;;;;;;5044078;28;20042;-72
2020/12/10 02:13:38;;;;;;;26.52;17.70;;;2.10;99.90;;;;;;5024471;28;20046;-76
2020/12/10 02:16:06;;;;;;;26.55;18.38;;;2.10;99.90;;;;;;5022777;28;20456;-77
2020/12/10 02:18:33;;;;;;;28.50;17.45;;;2.10;99.90;;;;;;5020522;28;20060;-77
2020/12/10 02:21:00;;;;;;;24.27;16.73;;;2.10;99.90;;;;;;5028697;28;20582;-69
2020/12/10 02:23:26;;;;;;;28.30;18.23;;;2.10;99.90;;;;;;5022532;28;20405;-77
2020/12/10 02:25:53;;;;;;;28.58;17.60;;;2.10;99.90;;;;;;5028521;28;20048;-74
2020/12/10 02:28:20;;;;;;;26.33;18.08;;;2.00;99.90;;;;;;5022567;28;20045;-74
2020/12/10 02:30:47;;;;;;;26.23;16.35;;;2.00;99.90;;;;;;5024914;28;20136;-77
2020/12/10 02:33:14;;;;;;;36.00;18.23;;;2.00;99.90;;;;;;5021574;28;20133;-76
2020/12/10 02:35:42;;;;;;;28.05;19.63;;;2.00;99.90;;;;;;5026461;28;20036;-68
2020/12/10 02:38:11;;;;;;;28.60;17.88;;;2.00;99.90;;;;;;5022154;28;20049;-71
2020/12/10 02:40:46;;;;;;;29.10;18.30;;;2.00;99.90;;;;;;5023848;28;20107;-68
2020/12/10 02:43:14;;;;;;;27.25;18.30;;;2.00;99.90;;;;;;5023091;28;20136;-75
2020/12/10 02:45:42;;;;;;;27.10;18.67;;;2.00;99.90;;;;;;5025700;28;20041;-73
2020/12/10 02:48:08;;;;;;;29.45;19.23;;;2.00;99.90;;;;;;5026577;28;20053;-70
2020/12/10 02:50:36;;;;;;;25.58;17.95;;;2.00;99.90;;;;;;5022547;28;20053;-76
2020/12/10 02:53:07;;;;;;;28.35;17.90;;;2.00;99.90;;;;;;5025149;28;20095;-77
2020/12/10 02:55:34;;;;;;;24.30;15.00;;;2.00;99.90;;;;;;5023795;28;20338;-70
2020/12/10 02:58:01;;;;;;;23.88;17.40;;;2.00;99.90;;;;;;5020191;28;20675;-71
2020/12/10 03:00:27;;;;;;;27.00;18.30;;;2.00;99.90;;;;;;5025154;28;20140;-77
2020/12/10 03:02:55;;;;;;;24.23;15.93;;;2.00;99.90;;;;;;5024595;28;20057;-68
2020/12/10 03:05:21;;;;;;;23.35;15.63;;;2.00;99.90;;;;;;5021697;28;20048;-75
2020/12/10 03:07:48;;;;;;;22.55;15.40;;;2.00;99.90;;;;;;5022621;28;20049;-73
2020/12/10 03:10:14;;;;;;;26.02;18.60;;;2.00;99.90;;;;;;5021183;28;20052;-68
2020/12/10 03:12:41;;;;;;;26.80;17.98;;;1.90;99.90;;;;;;5025346;28;20041;-71
2020/12/10 03:15:07;;;;;;;25.98;16.70;;;1.90;99.90;;;;;;5022801;28;20064;-77
2020/12/10 03:17:34;;;;;;;24.27;19.05;;;2.00;99.90;;;;;;5025180;28;21351;-70
2020/12/10 03:20:00;;;;;;;28.52;19.70;;;1.90;99.90;;;;;;5018287;28;20052;-71
2020/12/10 03:22:27;;;;;;;28.52;17.50;;;1.90;99.90;;;;;;5025827;28;20056;-70
2020/12/10 03:24:53;;;;;;;26.35;18.33;;;2.00;99.90;;;;;;5021116;28;20053;-78
2020/12/10 03:27:20;;;;;;;26.05;18.45;;;2.00;99.90;;;;;;5025724;28;20056;-74
2020/12/10 03:29:46;;;;;;;28.63;19.30;;;2.00;99.90;;;;;;5020575;28;20496;-71
2020/12/10 03:32:13;;;;;;;30.25;20.42;;;2.00;99.90;;;;;;5021002;28;20061;-78
2020/12/10 03:34:39;;;;;;;28.40;21.10;;;2.00;99.90;;;;;;5024373;28;20045;-74
2020/12/10 03:37:06;;;;;;;23.30;17.95;;;2.00;99.90;;;;;;5020446;28;20042;-69
2020/12/10 03:39:32;;;;;;;29.92;19.13;;;2.00;99.90;;;;;;5022782;28;20041;-70
2020/12/10 03:42:00;;;;;;;30.15;18.52;;;2.00;99.90;;;;;;5020657;28;20044;-74
2020/12/10 03:44:27;;;;;;;29.33;19.20;;;2.00;99.90;;;;;;5026751;28;20045;-71
2020/12/10 03:46:55;;;;;;;26.77;18.75;;;2.00;99.90;;;;;;5022295;28;20197;-73
2020/12/10 03:49:22;;;;;;;27.77;19.13;;;2.00;99.90;;;;;;5024175;28;20041;-68
2020/12/10 03:51:49;;;;;;;26.23;19.38;;;2.00;99.90;;;;;;5016684;28;20048;-77
2020/12/10 03:54:16;;;;;;;28.73;18.58;;;2.00;99.90;;;;;;5021467;28;20056;-75
2020/12/10 03:56:43;;;;;;;27.52;19.30;;;1.90;99.90;;;;;;5020074;28;20097;-70
2020/12/10 03:59:10;;;;;;;32.70;18.58;;;2.00;99.90;;;;;;5022669;28;20064;-70
2020/12/10 04:01:36;;;;;;;29.42;19.95;;;2.00;99.90;;;;;;5020797;28;20049;-67
2020/12/10 04:04:04;;;;;;;31.17;19.35;;;2.00;99.90;;;;;;5019434;28;20060;-73
2020/12/10 04:06:30;;;;;;;30.65;19.20;;;2.00;99.90;;;;;;5022806;28;20877;-70
2020/12/10 04:08:58;;;;;;;31.23;20.50;;;2.00;99.90;;;;;;5020881;28;20033;-70
2020/12/10 04:11:24;;;;;;;30.15;21.90;;;2.00;99.90;;;;;;5023584;28;20041;-75
2020/12/10 04:13:53;;;;;;;33.70;20.67;;;2.00;99.90;;;;;;5021759;28;20049;-71
2020/12/10 04:16:19;;;;;;;25.92;21.13;;;2.00;99.90;;;;;;5022662;28;20156;-75
2020/12/10 04:18:46;;;;;;;29.50;20.58;;;2.00;99.90;;;;;;5019691;28;20069;-72
2020/12/10 04:21:13;;;;;;;33.05;20.10;;;2.00;99.90;;;;;;5022065;28;20069;-67
2020/12/10 04:23:40;;;;;;;29.65;20.50;;;2.00;99.90;;;;;;5023905;28;20099;-75
2020/12/10 04:26:06;;;;;;;28.90;22.48;;;2.00;99.90;;;;;;5021024;28;20053;-74
2020/12/10 04:28:33;;;;;;;28.73;20.90;;;2.00;99.90;;;;;;5022581;28;21657;-75
2020/12/10 04:30:59;;;;;;;35.08;22.67;;;2.00;99.90;;;;;;5022769;28;20047;-73
2020/12/10 04:33:26;;;;;;;38.55;22.98;;;2.00;99.90;;;;;;5021916;28;20802;-73
2020/12/10 04:35:53;;;;;;;32.15;22.25;;;2.00;99.90;;;;;;5013964;28;20049;-73
2020/12/10 04:38:19;;;;;;;35.30;22.30;;;2.00;99.90;;;;;;5019910;28;20054;-75
2020/12/10 04:40:46;;;;;;;35.33;22.33;;;2.00;99.90;;;;;;5019591;28;20062;-71
2020/12/10 04:43:14;;;;;;;35.15;22.35;;;2.00;99.90;;;;;;5030666;28;20509;-70
2020/12/10 04:45:40;;;;;;;35.97;22.67;;;2.00;99.90;;;;;;5026940;28;20136;-71
2020/12/10 04:48:07;;;;;;;37.40;21.50;;;2.00;99.90;;;;;;5028438;28;20052;-69
2020/12/10 04:50:38;;;;;;;38.30;21.73;;;2.00;99.90;;;;;;5026034;28;20171;-70
2020/12/10 04:53:04;;;;;;;30.67;20.45;;;2.00;99.90;;;;;;5028193;28;20044;-77
2020/12/10 04:55:31;;;;;;;39.20;22.73;;;2.00;99.90;;;;;;5026405;28;20140;-70
2020/12/10 04:58:00;;;;;;;31.92;20.48;;;2.00;99.90;;;;;;5027261;28;20819;-68
2020/12/10 05:00:27;;;;;;;32.38;19.58;;;2.00;99.90;;;;;;5025671;28;20049;-70
2020/12/10 05:02:55;;;;;;;38.10;21.33;;;2.00;99.90;;;;;;5025334;28;20075;-70
2020/12/10 05:05:28;;;;;;;28.42;21.92;;;1.90;99.90;;;;;;5023474;28;20041;-70
2020/12/10 05:07:58;;;;;;;32.97;21.33;;;1.90;99.90;;;;;;5026844;28;20049;-75
2020/12/10 05:10:25;;;;;;;34.10;20.92;;;1.90;99.90;;;;;;5024936;28;20126;-75
2020/12/10 05:13:08;;;;;;;47.08;24.40;;;2.00;99.90;;;;;;5025511;28;20039;-75
2020/12/10 05:15:37;;;;;;;31.05;22.08;;;2.00;99.90;;;;;;5026829;28;20057;-75
2020/12/10 05:18:05;;;;;;;32.67;22.65;;;2.00;99.90;;;;;;5025616;28;20441;-70
2020/12/10 05:20:47;;;;;;;40.25;22.92;;;2.00;99.90;;;;;;5024894;28;20788;-71
2020/12/10 05:23:15;;;;;;;36.13;23.58;;;2.00;99.90;;;;;;5022073;28;20036;-67
2020/12/10 05:25:45;;;;;;;29.90;21.02;;;2.00;99.90;;;;;;5026140;28;20122;-67
2020/12/10 05:28:12;;;;;;;33.42;21.50;;;1.90;99.90;;;;;;5024026;28;20535;-68
2020/12/10 05:30:41;;;;;;;37.75;23.17;;;2.00;99.90;;;;;;5024486;28;20044;-72
2020/12/10 05:33:15;;;;;;;41.17;20.75;;;1.90;99.90;;;;;;5023779;28;20029;-67
2020/12/10 05:35:42;;;;;;;31.40;20.90;;;1.90;99.90;;;;;;5026283;28;20108;-69
2020/12/10 05:38:12;;;;;;;29.20;20.10;;;1.90;99.90;;;;;;5022223;28;20190;-70
2020/12/10 05:40:39;;;;;;;33.20;21.45;;;1.90;99.90;;;;;;5028414;28;20045;-71
2020/12/10 05:43:06;;;;;;;33.85;23.40;;;1.90;99.90;;;;;;5027127;28;20037;-72
2020/12/10 05:45:39;;;;;;;37.17;23.40;;;1.90;99.90;;;;;;5027878;28;20041;-71
2020/12/10 05:48:05;;;;;;;35.13;23.60;;;1.90;99.90;;;;;;5026606;28;20337;-73
2020/12/10 05:50:34;;;;;;;34.85;21.88;;;1.90;99.90;;;;;;5026873;28;20041;-69
2020/12/10 05:53:06;;;;;;;38.15;24.33;;;1.90;99.90;;;;;;5026345;28;20235;-77
2020/12/10 05:55:34;;;;;;;32.65;20.95;;;1.90;99.90;;;;;;5024558;28;20061;-72
2020/12/10 05:58:02;;;;;;;36.60;22.60;;;1.90;99.90;;;;;;5023710;28;20056;-70
2020/12/10 06:00:30;;;;;;;36.08;21.52;;;1.80;99.90;;;;;;5024921;28;20434;-72
2020/12/10 06:02:56;;;;;;;31.40;20.40;;;1.90;99.90;;;;;;5026382;28;22121;-74
2020/12/10 06:05:24;;;;;;;32.67;20.42;;;1.90;99.90;;;;;;5025649;28;20045;-68
2020/12/10 06:08:09;;;;;;;33.75;21.02;;;1.90;99.90;;;;;;5027081;28;20378;-72
2020/12/10 06:10:36;;;;;;;33.80;20.38;;;1.80;99.90;;;;;;5025964;28;20543;-71
2020/12/10 06:13:04;;;;;;;34.97;21.23;;;1.80;99.90;;;;;;5025786;28;20749;-72
2020/12/10 06:15:32;;;;;;;34.22;21.08;;;1.80;99.90;;;;;;5024368;28;20048;-76
2020/12/10 06:18:13;;;;;;;48.22;22.73;;;1.80;99.90;;;;;;5026526;28;20359;-72
2020/12/10 06:20:45;;;;;;;35.28;22.20;;;1.80;99.90;;;;;;5024730;28;20722;-73
2020/12/10 06:23:23;;;;;;;32.97;21.17;;;1.80;99.90;;;;;;5029863;28;20048;-71
2020/12/10 06:25:51;;;;;;;47.15;24.45;;;1.80;99.90;;;;;;5025278;28;20073;-71
2020/12/10 06:28:19;;;;;;;35.65;22.67;;;1.80;99.90;;;;;;5028270;28;20783;-70
2020/12/10 06:31:05;;;;;;;30.40;20.00;;;1.90;99.90;;;;;;5025514;28;20091;-73
2020/12/10 06:33:41;;;;;;;30.23;21.05;;;1.90;99.90;;;;;;5029476;28;20054;-76
2020/12/10 06:36:26;;;;;;;30.35;20.02;;;1.80;99.90;;;;;;5022191;28;20051;-76
2020/12/10 06:38:57;;;;;;;40.80;24.63;;;1.80;99.90;;;;;;5024599;28;20041;-70
2020/12/10 06:41:24;;;;;;;40.28;24.08;;;1.80;99.90;;;;;;5022974;28;20358;-68
2020/12/10 06:43:51;;;;;;;34.78;24.20;;;1.80;99.90;;;;;;5023119;28;20939;-82
2020/12/10 06:46:18;;;;;;;55.13;25.52;;;1.80;99.90;;;;;;5025555;28;20463;-75
2020/12/10 06:48:50;;;;;;;45.08;25.27;;;1.80;99.90;;;;;;5027185;28;20063;-74
2020/12/10 06:51:21;;;;;;;40.38;24.17;;;1.80;99.90;;;;;;5023974;28;20904;-77
2020/12/10 06:53:59;;;;;;;38.17;23.25;;;1.80;99.90;;;;;;5019973;28;20037;-70
2020/12/10 06:56:30;;;;;;;39.00;24.08;;;1.80;99.90;;;;;;5021934;28;20053;-77
2020/12/10 06:58:59;;;;;;;;;;;1.80;99.90;;;;;;5020895;28;20043;-72
2020/12/10 07:01:26;;;;;;;34.55;20.27;;;1.80;99.90;;;;;;5021478;28;19964;-72
2020/12/10 07:04:09;;;;;;;33.22;21.33;;;1.80;99.90;;;;;;5022484;28;20072;-78
2020/12/10 07:06:36;;;;;;;34.67;21.27;;;1.80;99.90;;;;;;5025371;28;20360;-70
2020/12/10 07:09:16;;;;;;;34.03;21.20;;;1.80;99.90;;;;;;5021753;28;20604;-71
2020/12/10 07:11:45;;;;;;;33.88;23.50;;;1.70;99.90;;;;;;5024807;28;20045;-75
2020/12/10 07:14:32;;;;;;;30.90;20.85;;;1.70;99.90;;;;;;5019837;28;20566;-77
2020/12/10 07:17:00;;;;;;;27.80;17.77;;;1.70;99.90;;;;;;5020823;28;20044;-67
2020/12/10 07:19:27;;;;;;;29.15;18.50;;;1.70;99.90;;;;;;5023955;28;20133;-76
2020/12/10 07:21:54;;;;;;;29.80;16.33;;;1.70;99.90;;;;;;5023973;28;20049;-78
2020/12/10 07:24:20;;;;;;;24.42;16.33;;;1.60;99.90;;;;;;5023167;28;20056;-75
2020/12/10 07:26:47;;;;;;;30.02;18.13;;;1.60;99.90;;;;;;5031281;28;20110;-69
2020/12/10 07:29:13;;;;;;;30.65;19.35;;;1.60;99.90;;;;;;5025714;28;23773;-68
2020/12/10 07:31:42;;;;;;;30.60;17.50;;;1.60;99.90;;;;;;5024969;28;20044;-73
2020/12/10 07:34:11;;;;;;;36.10;19.13;;;1.50;99.90;;;;;;5024095;28;20041;-68
2020/12/10 07:36:49;;;;;;;26.75;17.80;;;1.50;99.90;;;;;;5026780;28;20040;-77
2020/12/10 07:39:32;;;;;;;38.67;20.20;;;1.50;99.90;;;;;;5025455;28;20044;-75
2020/12/10 07:41:59;;;;;;;31.98;19.33;;;1.50;99.90;;;;;;5024531;28;20045;-79
2020/12/10 07:44:28;;;;;;;32.58;19.98;;;1.50;99.90;;;;;;5023154;28;20494;-78
2020/12/10 07:46:55;;;;;;;30.75;19.60;;;1.50;99.90;;;;;;5024137;28;20120;-70
2020/12/10 07:49:30;;;;;;;31.38;19.08;;;1.50;99.90;;;;;;5026673;28;20064;-74
2020/12/10 07:52:15;;;;;;;32.70;21.13;;;1.50;99.90;;;;;;5023045;28;20455;-74
2020/12/10 07:55:02;;;;;;;29.15;20.45;;;1.50;99.90;;;;;;5019061;28;20865;-72
2020/12/10 07:57:31;;;;;;;33.25;21.25;;;1.50;99.90;;;;;;5014589;28;20044;-71
2020/12/10 08:00:07;;;;;;;36.45;20.25;;;1.50;99.90;;;;;;5023674;28;20064;-72
2020/12/10 08:03:07;;;;;;;26.52;19.77;;;1.50;99.90;;;;;;5021707;28;20045;-72
2020/12/10 08:05:34;;;;;;;32.35;21.48;;;1.50;99.90;;;;;;5020456;28;20549;-70
2020/12/10 08:08:01;;;;;;;26.63;18.42;;;1.50;99.90;;;;;;5020682;28;20211;-74
2020/12/10 08:10:34;;;;;;;26.67;17.98;;;1.50;99.90;;;;;;5029140;28;20050;-73
2020/12/10 08:13:10;;;;;;;31.88;17.45;;;1.50;99.90;;;;;;5021553;28;20579;-75
2020/12/10 08:15:39;;;;;;;28.20;17.35;;;1.50;99.90;;;;;;5029668;28;20044;-73
2020/12/10 08:18:06;;;;;;;26.95;17.00;;;1.50;99.90;;;;;;5025143;28;20057;-71
2020/12/10 08:20:45;;;;;;;35.95;20.58;;;1.50;99.90;;;;;;5032190;28;20099;-73
2020/12/10 08:23:14;;;;;;;32.47;20.33;;;1.50;99.90;;;;;;5027621;28;20389;-72
2020/12/10 08:25:42;;;;;;;28.13;18.88;;;1.50;99.90;;;;;;5031162;28;20106;-79
2020/12/10 08:28:11;;;;;;;28.63;18.67;;;1.50;99.90;;;;;;5024981;28;20044;-73
2020/12/10 08:30:50;;;;;;;27.52;18.13;;;1.50;99.90;;;;;;5034617;28;20411;-79
2020/12/10 08:33:16;;;;;;;31.38;18.80;;;1.50;99.90;;;;;;5028196;28;20122;-75
2020/12/10 08:35:45;;;;;;;27.15;19.70;;;1.50;99.90;;;;;;5028939;28;20060;-72
2020/12/10 08:38:11;;;;;;;27.65;17.90;;;1.50;99.90;;;;;;5029105;28;20527;-71
2020/12/10 08:40:38;;;;;;;33.83;21.70;;;1.50;99.90;;;;;;5029748;28;20060;-74
2020/12/10 08:43:13;;;;;;;30.00;18.80;;;1.50;99.90;;;;;;5027157;28;20119;-77
2020/12/10 08:45:44;;;;;;;34.13;20.05;;;1.50;99.90;;;;;;5024576;28;20477;-74
2020/12/10 08:48:16;;;;;;;30.33;18.92;;;1.50;99.90;;;;;;5029085;28;20154;-68
2020/12/10 08:51:00;;;;;;;37.95;19.77;;;1.50;99.90;;;;;;5043219;28;20042;-69
2020/12/10 08:53:27;;;;;;;32.40;17.48;;;1.50;99.90;;;;;;5030250;28;20056;-74
2020/12/10 08:55:56;;;;;;;34.30;20.38;;;1.50;99.90;;;;;;5023489;28;20057;-74
2020/12/10 08:58:28;;;;;;;33.15;23.02;;;1.50;99.90;;;;;;5029676;28;20107;-71
2020/12/10 09:00:59;;;;;;;30.52;20.50;;;1.50;99.90;;;;;;5024999;28;20037;-74
2020/12/10 09:03:26;;;;;;;31.48;20.30;;;1.50;99.90;;;;;;5032659;28;20045;-72
2020/12/10 09:05:53;;;;;;;29.15;19.67;;;1.50;99.90;;;;;;5022727;28;20096;-72
2020/12/10 09:08:20;;;;;;;32.00;21.00;;;1.50;99.90;;;;;;5031526;28;20049;-71
2020/12/10 09:10:47;;;;;;;30.20;21.17;;;1.40;99.90;;;;;;5027971;28;20053;-74
2020/12/10 09:13:13;;;;;;;35.83;20.65;;;1.40;99.90;;;;;;5029510;28;20053;-73
2020/12/10 09:15:43;;;;;;;33.40;19.73;;;1.40;99.90;;;;;;5025756;28;20458;-75
2020/12/10 09:18:13;;;;;;;36.88;22.73;;;1.40;99.90;;;;;;5034094;28;20052;-78
2020/12/10 09:20:41;;;;;;;40.50;23.00;;;1.50;99.90;;;;;;5029084;28;20184;-73
2020/12/10 09:23:10;;;;;;;40.17;21.33;;;1.40;99.90;;;;;;5024358;28;20501;-72
2020/12/10 09:25:36;;;;;;;32.00;21.02;;;1.50;99.90;;;;;;5025966;28;20422;-74
2020/12/10 09:28:04;;;;;;;37.90;20.83;;;1.50;99.90;;;;;;5025387;28;20063;-74
2020/12/10 09:30:31;;;;;;;34.90;23.30;;;1.50;99.90;;;;;;5031464;28;20148;-69
2020/12/10 09:32:57;;;;;;;31.40;21.15;;;1.50;99.90;;;;;;5026152;28;20057;-69
2020/12/10 09:35:24;;;;;;;33.28;20.40;;;1.50;99.90;;;;;;5030990;28;20432;-68
2020/12/10 09:37:50;;;;;;;33.13;20.67;;;1.50;99.90;;;;;;5024025;28;20141;-70
2020/12/10 09:40:17;;;;;;;33.35;21.77;;;1.40;99.90;;;;;;5029512;28;20063;-71
2020/12/10 09:42:45;;;;;;;39.15;21.55;;;1.40;99.90;;;;;;5024785;28;20142;-73
2020/12/10 09:45:17;;;;;;;36.37;20.77;;;1.40;99.90;;;;;;5028757;28;20049;-68
2020/12/10 09:47:46;;;;;;;30.13;20.42;;;1.40;99.90;;;;;;5021908;28;20128;-72
2020/12/10 09:50:29;;;;;;;28.85;19.48;;;1.40;99.90;;;;;;5032509;28;20399;-68
2020/12/10 09:58:11;;;;;;;35.00;20.30;;;1.40;99.90;;;;;;5025147;28;20057;-68
2020/12/10 10:00:37;;;;;;;38.50;22.50;;;1.50;99.90;;;;;;5030768;28;20045;-71
2020/12/10 10:03:07;;;;;;;37.60;21.38;;;1.50;99.90;;;;;;5026625;28;20068;-72
2020/12/10 10:05:53;;;;;;;27.70;19.08;;;1.50;99.90;;;;;;5027299;28;20542;-72
2020/12/10 10:08:23;;;;;;;33.72;21.52;;;1.50;99.90;;;;;;5026215;28;20045;-77
2020/12/10 10:10:51;;;;;;;26.02;18.75;;;1.50;99.90;;;;;;5024888;28;20049;-73
2020/12/10 10:13:17;;;;;;;30.42;17.58;;;1.50;99.90;;;;;;5024378;28;20533;-84
2020/12/10 10:15:45;;;;;;;35.70;18.25;;;1.50;99.90;;;;;;5024544;28;20056;-70
2020/12/10 10:18:13;;;;;;;31.42;18.63;;;1.50;99.90;;;;;;5030896;28;20072;-72
2020/12/10 10:20:39;;;;;;;29.33;18.80;;;1.50;99.90;;;;;;5025194;28;20447;-70
2020/12/10 10:23:05;;;;;;;26.75;16.17;;;1.60;99.90;;;;;;5026348;28;20049;-79
2020/12/10 10:25:32;;;;;;;26.02;16.48;;;1.50;99.90;;;;;;5025003;28;20496;-70
2020/12/10 10:28:03;;;;;;;27.77;16.70;;;1.50;99.90;;;;;;5029648;28;20049;-74
2020/12/10 10:30:30;;;;;;;30.50;17.52;;;1.50;99.90;;;;;;5024581;28;20100;-72
2020/12/10 10:32:57;;;;;;;24.92;18.02;;;1.50;99.90;;;;;;5025852;28;20067;-78
2020/12/10 10:35:24;;;;;;;27.48;16.63;;;1.50;99.90;;;;;;5022229;28;20496;-74
2020/12/10 10:37:52;;;;;;;25.80;18.00;;;1.50;99.90;;;;;;5023416;28;20421;-69
2020/12/10 10:40:19;;;;;;;23.23;15.05;;;1.50;99.90;;;;;;5024199;28;20095;-68
2020/12/10 10:42:46;;;;;;;30.85;17.75;;;1.50;99.90;;;;;;5023234;28;20987;-76
2020/12/10 10:45:13;;;;;;;20.70;15.93;;;1.50;99.90;;;;;;5025184;28;20077;-68
2020/12/10 10:47:39;;;;;;;24.33;14.23;;;1.50;99.90;;;;;;5026813;28;20472;-79
2020/12/10 10:50:06;;;;;;;29.00;16.63;;;1.50;99.90;;;;;;5028856;28;20056;-78
2020/12/10 10:52:32;;;;;;;27.30;17.05;;;1.50;99.90;;;;;;5027660;28;20509;-68
2020/12/10 10:54:59;;;;;;;25.75;17.13;;;1.50;99.90;;;;;;5026677;28;20469;-73
2020/12/10 10:57:25;;;;;;;26.45;16.67;;;1.50;99.90;;;;;;5025079;28;20048;-75
2020/12/10 10:59:52;;;;;;;28.02;17.60;;;1.50;99.90;;;;;;5023292;28;20041;-74
2020/12/10 11:02:19;;;;;;;27.38;17.50;;;1.50;99.90;;;;;;5028817;28;20677;-75
2020/12/10 11:04:46;;;;;;;29.38;19.13;;;1.50;99.90;;;;;;5027560;28;20103;-75
2020/12/10 11:07:12;;;;;;;27.00;16.92;;;1.50;99.90;;;;;;5028462;28;20061;-71
2020/12/10 11:09:39;;;;;;;27.10;16.88;;;1.50;99.90;;;;;;5026320;28;20045;-72
2020/12/10 11:12:05;;;;;;;30.30;17.27;;;1.60;99.90;;;;;;5032700;28;20194;-74
2020/12/10 11:14:32;;;;;;;23.80;15.57;;;1.60;99.90;;;;;;5021986;28;20103;-70
2020/12/10 11:16:58;;;;;;;28.00;16.83;;;1.50;99.90;;;;;;5024700;28;20045;-75
2020/12/10 11:19:25;;;;;;;30.08;17.45;;;1.50;99.90;;;;;;5016019;28;20076;-69
2020/12/10 11:21:52;;;;;;;28.00;18.33;;;1.50;99.90;;;;;;5021129;28;20107;-75
2020/12/10 11:24:18;;;;;;;27.25;17.42;;;1.50;99.90;;;;;;5024237;28;20041;-75
2020/12/10 11:26:49;;;;;;;27.55;18.70;;;1.50;99.90;;;;;;5023835;28;20698;-72
2020/12/10 11:29:16;;;;;;;27.17;18.38;;;1.50;99.90;;;;;;5019508;28;20128;-79
2020/12/10 11:31:42;;;;;;;25.73;15.23;;;1.60;99.90;;;;;;5024396;28;20369;-68
2020/12/10 11:34:09;;;;;;;26.13;17.75;;;1.50;99.90;;;;;;5022460;28;20572;-69
2020/12/10 11:36:36;;;;;;;27.52;16.58;;;1.50;99.90;;;;;;5027649;28;20037;-78
2020/12/10 11:39:03;;;;;;;26.60;17.05;;;1.50;99.90;;;;;;5023247;28;20045;-70
2020/12/10 11:41:29;;;;;;;26.98;17.38;;;1.50;99.90;;;;;;5022823;28;20072;-76
2020/12/10 11:43:56;;;;;;;24.25;16.63;;;1.50;99.90;;;;;;5019421;28;20798;-73
2020/12/10 11:46:22;;;;;;;25.55;15.95;;;1.50;99.90;;;;;;5021831;28;20440;-73
2020/12/10 11:48:49;;;;;;;29.27;18.23;;;1.50;99.90;;;;;;5025153;28;20135;-68
2020/12/10 11:51:18;;;;;;;24.58;16.48;;;1.50;99.90;;;;;;5023280;28;20041;-73
2020/12/10 11:53:47;;;;;;;25.65;16.90;;;1.50;99.90;;;;;;5023527;28;20071;-68
2020/12/10 11:56:15;;;;;;;28.73;17.48;;;1.50;99.90;;;;;;5017951;28;20376;-77
2020/12/10 11:58:42;;;;;;;26.48;17.73;;;1.50;99.90;;;;;;5024537;28;20489;-70
2020/12/10 12:01:09;;;;;;;31.23;19.33;;;1.50;99.90;;;;;;5021053;28;20049;-72
2020/12/10 12:03:35;;;;;;;27.05;18.58;;;1.50;99.90;;;;;;5024195;28;20044;-70
2020/12/10 12:06:02;;;;;;;25.65;16.63;;;1.50;99.90;;;;;;5021074;28;20120;-76
2020/12/10 12:08:28;;;;;;;28.20;17.48;;;1.50;99.90;;;;;;5031538;28;20041;-73
2020/12/10 12:10:55;;;;;;;28.48;19.02;;;1.50;99.90;;;;;;5025100;28;20037;-71
2020/12/10 12:13:22;;;;;;;29.17;18.13;;;1.50;99.90;;;;;;5027794;28;20041;-70
2020/12/10 12:15:49;;;;;;;28.42;17.10;;;1.60;99.90;;;;;;5025059;28;20045;-69
2020/12/10 12:18:18;;;;;;;32.75;19.65;;;1.50;99.90;;;;;;5025998;28;20090;-72
2020/12/10 12:20:45;;;;;;;25.13;16.48;;;1.60;99.90;;;;;;5026250;28;20130;-73
2020/12/10 12:23:12;;;;;;;27.05;18.95;;;1.60;99.90;;;;;;5023361;28;20475;-71
2020/12/10 12:25:39;;;;;;;26.60;17.33;;;1.50;99.90;;;;;;5024085;28;20049;-75
2020/12/10 12:28:05;;;;;;;27.48;17.10;;;1.50;99.90;;;;;;5027480;28;20469;-75
2020/12/10 12:30:33;;;;;;;28.33;16.77;;;1.50;99.90;;;;;;5024961;28;20099;-71
2020/12/10 12:33:00;;;;;;;31.05;16.63;;;1.50;99.90;;;;;;5023907;28;20041;-68
2020/12/10 12:35:27;;;;;;;25.40;16.42;;;1.50;99.90;;;;;;5027044;28;20574;-78
2020/12/10 12:37:53;;;;;;;25.02;15.73;;;1.40;99.90;;;;;;5020821;28;20049;-69
2020/12/10 12:40:39;;;;;;;25.20;17.95;;;1.50;99.90;;;;;;5025426;28;20053;-78
2020/12/10 12:43:06;;;;;;;29.55;17.83;;;1.50;99.90;;;;;;5021533;28;20041;-73
2020/12/10 12:45:32;;;;;;;26.23;18.00;;;1.50;99.90;;;;;;5026590;28;20049;-68
2020/12/10 12:47:59;;;;;;;26.42;16.95;;;1.50;99.90;;;;;;5019973;28;20049;-68
2020/12/10 12:50:26;;;;;;;37.50;17.85;;;1.50;99.90;;;;;;5024616;28;20611;-70